createdAt,value
2018-10-09T00:00:10.100Z,99.90
2018-10-09T00:02:39.670Z,99.90
2018-10-09T00:07:45.235Z,99.90
2018-10-09T00:10:15.295Z,99.90
2018-10-09T00:12:44.470Z,99.90
2018-10-09T00:15:13.686Z,99.90
2018-10-09T00:17:42.834Z,99.90
2018-10-09T00:20:19.314Z,99.90
2018-10-09T00:22:48.519Z,99.90
2018-10-09T00:25:17.631Z,99.90
2018-10-09T00:27:48.076Z,99.90
2018-10-09T00:30:18.576Z,99.90
2018-10-09T00:32:48.170Z,99.90
2018-10-09T00:35:17.283Z,99.90
2018-10-09T00:37:47.446Z,99.90
2018-10-09T00:40:17.320Z,99.90
2018-10-09T00:42:49.611Z,99.90
2018-10-09T00:45:18.807Z,99.90
2018-10-09T00:47:47.983Z,99.90
2018-10-09T00:50:16.924Z,99.90
2018-10-09T00:52:47.856Z,99.90
2018-10-09T00:55:16.982Z,99.90
2018-10-09T00:57:46.171Z,99.90
2018-10-09T01:00:15.624Z,99.90
2018-10-09T01:02:45.242Z,99.90
2018-10-09T01:05:16.011Z,99.90
2018-10-09T01:07:45.272Z,99.90
2018-10-09T01:10:14.648Z,99.90
2018-10-09T01:12:43.810Z,99.90
2018-10-09T01:15:13.021Z,99.90
2018-10-09T01:17:42.204Z,99.90
2018-10-09T01:20:11.189Z,99.90
2018-10-09T01:22:40.401Z,99.90
2018-10-09T01:25:12.564Z,99.90
2018-10-09T01:27:41.716Z,99.90
2018-10-09T01:30:10.844Z,99.90
2018-10-09T01:32:40.299Z,99.90
2018-10-09T01:35:09.409Z,99.90
2018-10-09T01:37:38.685Z,99.90
2018-10-09T01:40:07.735Z,99.90
2018-10-09T01:42:37.109Z,99.90
2018-10-09T01:45:06.377Z,99.90
2018-10-09T01:47:35.454Z,99.90
2018-10-09T01:50:04.619Z,99.90
2018-10-09T01:52:36.043Z,99.90
2018-10-09T01:55:05.759Z,99.90
2018-10-09T01:57:34.903Z,99.90
2018-10-09T02:00:04.405Z,99.90
2018-10-09T02:02:33.518Z,99.90
2018-10-09T02:05:03.416Z,99.90
2018-10-09T02:07:32.885Z,99.90
2018-10-09T02:10:01.967Z,99.90
2018-10-09T02:12:31.047Z,99.90
2018-10-09T02:15:05.145Z,99.90
2018-10-09T02:17:34.229Z,99.90
2018-10-09T02:20:03.047Z,99.90
2018-10-09T02:22:31.857Z,99.90
2018-10-09T02:25:03.411Z,99.90
2018-10-09T02:27:32.650Z,99.90
2018-10-09T02:30:02.977Z,99.90
2018-10-09T02:32:32.161Z,99.90
2018-10-09T02:35:01.805Z,99.90
2018-10-09T02:37:30.916Z,99.90
2018-10-09T02:40:00.155Z,99.90
2018-10-09T02:42:30.505Z,99.90
2018-10-09T02:44:59.969Z,99.90
2018-10-09T02:47:28.955Z,99.90
2018-10-09T02:49:58.195Z,99.90
2018-10-09T02:52:27.289Z,99.90
2018-10-09T02:54:56.407Z,99.90
2018-10-09T02:57:25.423Z,99.90
2018-10-09T02:59:54.301Z,99.90
2018-10-09T03:02:23.526Z,99.90
2018-10-09T03:04:53.519Z,99.90
2018-10-09T03:07:23.071Z,99.90
2018-10-09T03:09:52.184Z,99.90
2018-10-09T03:12:22.101Z,99.90
2018-10-09T03:14:51.259Z,99.90
2018-10-09T03:17:20.750Z,99.90
2018-10-09T03:19:50.085Z,99.90
2018-10-09T03:22:19.221Z,99.90
2018-10-09T03:24:55.509Z,99.90
2018-10-09T03:27:24.815Z,99.90
2018-10-09T03:29:54.035Z,99.90
2018-10-09T03:32:23.259Z,99.90
2018-10-09T03:34:52.394Z,99.90
2018-10-09T03:37:21.631Z,99.90
2018-10-09T03:39:51.399Z,99.90
2018-10-09T03:42:20.568Z,99.90
2018-10-09T03:44:49.730Z,99.90
2018-10-09T03:47:19.064Z,99.90
2018-10-09T03:49:48.190Z,99.90
2018-10-09T03:52:18.075Z,99.90
2018-10-09T03:54:47.294Z,99.90
2018-10-09T03:57:16.774Z,99.90
2018-10-09T03:59:45.952Z,99.90
2018-10-09T04:02:15.429Z,99.90
2018-10-09T04:04:46.756Z,99.90
2018-10-09T04:07:16.268Z,99.90
2018-10-09T04:09:45.446Z,99.90
2018-10-09T04:12:14.601Z,99.90
2018-10-09T04:14:43.729Z,99.90
2018-10-09T04:17:14.268Z,99.90
2018-10-09T04:19:43.427Z,99.90
2018-10-09T04:22:19.094Z,99.90
2018-10-09T04:24:48.218Z,99.90
2018-10-09T04:27:17.783Z,99.90
2018-10-09T04:29:47.184Z,99.90
2018-10-09T04:32:16.396Z,99.90
2018-10-09T04:34:45.677Z,99.90
2018-10-09T04:37:14.979Z,99.90
2018-10-09T04:39:44.164Z,99.90
2018-10-09T04:42:13.339Z,99.90
2018-10-09T04:44:47.549Z,99.90
2018-10-09T04:47:17.760Z,99.90
2018-10-09T04:49:46.969Z,99.90
2018-10-09T04:52:16.153Z,99.90
2018-10-09T04:54:45.363Z,99.90
2018-10-09T04:59:57.659Z,99.90
2018-10-09T05:02:27.044Z,99.90
2018-10-09T05:04:56.246Z,99.90
2018-10-09T05:07:25.478Z,99.90
2018-10-09T05:09:55.260Z,99.90
2018-10-09T05:12:26.982Z,99.90
2018-10-09T05:14:56.488Z,99.90
2018-10-09T05:17:25.744Z,99.90
2018-10-09T05:19:55.004Z,99.90
2018-10-09T05:22:24.348Z,99.90
2018-10-09T05:25:01.204Z,99.90
2018-10-09T05:27:33.552Z,99.90
2018-10-09T05:30:02.844Z,99.90
2018-10-09T05:32:36.934Z,99.90
2018-10-09T05:35:05.883Z,99.90
2018-10-09T05:37:35.275Z,99.90
2018-10-09T05:40:04.849Z,99.90
2018-10-09T05:42:35.370Z,99.90
2018-10-09T05:45:04.556Z,99.90
2018-10-09T05:47:33.734Z,99.90
2018-10-09T05:50:05.393Z,99.90
2018-10-09T05:52:34.647Z,99.90
2018-10-09T05:55:04.075Z,99.90
2018-10-09T05:57:33.344Z,99.90
2018-10-09T06:00:02.779Z,99.90
2018-10-09T06:02:32.008Z,99.90
2018-10-09T06:05:01.210Z,99.90
2018-10-09T06:07:30.194Z,99.90
2018-10-09T06:09:59.531Z,99.90
2018-10-09T06:12:30.030Z,99.90
2018-10-09T06:15:00.873Z,99.90
2018-10-09T06:17:30.085Z,99.90
2018-10-09T06:19:59.494Z,99.90
2018-10-09T06:22:28.745Z,99.90
2018-10-09T06:24:59.360Z,99.90
2018-10-09T06:27:28.372Z,99.90
2018-10-09T06:29:57.549Z,99.90
2018-10-09T06:32:27.569Z,99.90
2018-10-09T06:34:57.635Z,99.90
2018-10-09T06:37:27.700Z,99.90
2018-10-09T06:39:58.720Z,99.90
2018-10-09T06:42:27.799Z,99.90
2018-10-09T06:44:57.049Z,99.90
2018-10-09T06:47:27.489Z,99.90
2018-10-09T06:49:56.616Z,99.90
2018-10-09T06:52:25.773Z,99.90
2018-10-09T06:54:54.973Z,99.90
2018-10-09T06:57:30.090Z,99.90
2018-10-09T06:59:59.397Z,99.90
2018-10-09T07:02:28.590Z,99.90
2018-10-09T07:04:58.060Z,99.90
2018-10-09T07:07:27.526Z,99.90
2018-10-09T07:09:56.314Z,99.90
2018-10-09T07:12:25.267Z,99.90
2018-10-09T07:14:55.679Z,99.90
2018-10-09T07:17:24.890Z,99.90
2018-10-09T07:19:54.013Z,99.90
2018-10-09T07:22:23.551Z,99.90
2018-10-09T07:24:52.754Z,99.90
2018-10-09T07:27:22.306Z,99.90
2018-10-09T07:29:52.256Z,99.90
2018-10-09T07:32:21.278Z,99.90
2018-10-09T07:34:51.396Z,99.90
2018-10-09T07:37:20.539Z,99.90
2018-10-09T07:39:49.677Z,99.90
2018-10-09T07:42:18.849Z,99.90
2018-10-09T07:44:48.554Z,99.90
2018-10-09T07:47:25.276Z,99.90
2018-10-09T07:49:55.203Z,99.90
2018-10-09T07:52:24.473Z,99.90
2018-10-09T07:54:54.314Z,99.90
2018-10-09T07:57:23.620Z,99.90
2018-10-09T07:59:52.756Z,99.90
2018-10-09T08:02:22.198Z,99.90
2018-10-09T08:04:51.488Z,99.90
2018-10-09T08:07:20.659Z,99.90
2018-10-09T08:09:50.785Z,99.90
2018-10-09T08:12:21.690Z,99.90
2018-10-09T08:14:51.873Z,99.90
2018-10-09T08:17:21.503Z,99.90
2018-10-09T08:19:52.574Z,99.90
2018-10-09T08:22:22.696Z,99.90
2018-10-09T08:24:55.578Z,99.90
2018-10-09T08:27:26.714Z,99.90
2018-10-09T08:29:56.225Z,99.90
2018-10-09T08:32:27.303Z,99.90
2018-10-09T08:34:56.578Z,99.90
2018-10-09T08:37:34.101Z,99.90
2018-10-09T08:40:05.778Z,99.90
2018-10-09T08:42:37.795Z,99.90
2018-10-09T08:45:08.693Z,99.90
2018-10-09T08:47:38.745Z,99.90
2018-10-09T08:50:07.987Z,99.90
2018-10-09T08:52:38.595Z,99.90
2018-10-09T08:55:08.675Z,99.90
2018-10-09T08:57:40.039Z,99.90
2018-10-09T09:00:10.423Z,99.90
2018-10-09T09:02:39.684Z,99.90
2018-10-09T09:05:11.694Z,99.90
2018-10-09T09:07:41.324Z,99.90
2018-10-09T09:12:35.196Z,99.90
2018-10-09T09:15:06.563Z,99.90
2018-10-09T09:17:35.958Z,99.90
2018-10-09T09:20:06.369Z,99.90
2018-10-09T09:22:35.634Z,99.90
2018-10-09T09:25:05.809Z,99.90
2018-10-09T09:27:36.789Z,99.90
2018-10-09T09:30:10.629Z,99.90
2018-10-09T09:32:39.900Z,99.90
2018-10-09T09:35:09.084Z,99.90
2018-10-09T09:37:38.271Z,99.90
2018-10-09T09:40:08.153Z,99.90
2018-10-09T09:42:38.424Z,99.90
2018-10-09T09:45:08.803Z,99.90
2018-10-09T09:47:37.941Z,99.90
2018-10-09T09:50:07.174Z,99.90
2018-10-09T09:52:37.184Z,99.90
2018-10-09T09:55:06.355Z,99.90
2018-10-09T09:57:36.173Z,99.90
2018-10-09T10:00:06.095Z,99.90
2018-10-09T10:02:35.305Z,99.90
2018-10-09T10:07:41.979Z,99.90
2018-10-09T10:10:12.313Z,99.90
2018-10-09T10:12:42.413Z,99.90
2018-10-09T10:15:12.715Z,99.90
2018-10-09T10:17:41.877Z,99.90
2018-10-09T10:20:12.419Z,99.90
2018-10-09T10:22:41.217Z,99.90
2018-10-09T10:25:12.928Z,99.90
2018-10-09T10:27:42.127Z,99.90
2018-10-09T10:30:11.894Z,99.90
2018-10-09T10:32:40.833Z,99.90
2018-10-09T10:35:11.438Z,99.90
2018-10-09T10:37:42.373Z,99.90
2018-10-09T10:40:13.270Z,99.90
2018-10-09T10:42:43.048Z,99.90
2018-10-09T10:45:13.034Z,99.90
2018-10-09T10:47:44.423Z,99.90
2018-10-09T10:50:13.783Z,99.90
2018-10-09T10:52:45.554Z,99.90
2018-10-09T10:55:14.748Z,99.90
2018-10-09T10:57:44.018Z,99.90
2018-10-09T11:00:14.840Z,99.90
2018-10-09T11:02:45.792Z,99.90
2018-10-09T11:05:15.931Z,99.90
2018-10-09T11:07:46.176Z,99.90
2018-10-09T11:10:15.979Z,99.90
2018-10-09T11:12:45.523Z,99.90
2018-10-09T11:15:15.874Z,99.90
2018-10-09T11:17:47.572Z,99.90
2018-10-09T11:20:16.884Z,99.90
2018-10-09T11:22:46.148Z,99.90
2018-10-09T11:25:16.010Z,99.90
2018-10-09T11:27:48.573Z,99.90
2018-10-09T11:30:21.379Z,99.90
2018-10-09T11:32:52.257Z,99.90
2018-10-09T11:35:22.098Z,99.40
2018-10-09T11:37:56.602Z,98.50
2018-10-09T11:40:26.764Z,98.80
2018-10-09T11:43:00.338Z,98.80
2018-10-09T11:45:33.591Z,98.00
2018-10-09T11:48:03.754Z,97.00
2018-10-09T11:50:33.028Z,96.00
2018-10-09T11:53:03.703Z,95.60
2018-10-09T11:55:33.444Z,95.80
2018-10-09T11:58:04.671Z,94.30
2018-10-09T12:00:36.259Z,93.60
2018-10-09T12:03:07.777Z,93.40
2018-10-09T12:05:39.168Z,94.00
2018-10-09T12:08:10.294Z,91.80
2018-10-09T12:10:40.162Z,91.90
2018-10-09T12:13:08.956Z,91.30
2018-10-09T12:15:38.425Z,91.30
2018-10-09T12:18:08.340Z,91.40
2018-10-09T12:20:37.512Z,91.10
2018-10-09T12:23:07.613Z,90.90
2018-10-09T12:25:42.237Z,91.40
2018-10-09T12:28:12.493Z,91.40
2018-10-09T12:30:42.794Z,90.90
2018-10-09T12:33:11.993Z,90.00
2018-10-09T12:35:41.197Z,89.10
2018-10-09T12:38:11.057Z,89.80
2018-10-09T12:40:48.362Z,90.50
2018-10-09T12:43:18.606Z,88.90
2018-10-09T12:45:48.727Z,88.30
2018-10-09T12:48:24.471Z,88.70
2018-10-09T12:50:55.339Z,89.40
2018-10-09T12:53:24.714Z,88.20
2018-10-09T12:55:54.619Z,88.40
2018-10-09T12:58:25.491Z,89.20
2018-10-09T13:00:56.393Z,90.00
2018-10-09T13:03:26.769Z,88.90
2018-10-09T13:05:58.383Z,89.20
2018-10-09T13:08:30.733Z,88.60
2018-10-09T13:11:02.797Z,88.80
2018-10-09T13:13:32.968Z,90.70
2018-10-09T13:16:02.379Z,91.20
2018-10-09T13:18:34.199Z,91.40
2018-10-09T13:21:06.349Z,90.90
2018-10-09T13:23:36.372Z,90.20
2018-10-09T13:26:06.328Z,89.10
2018-10-09T13:28:36.837Z,88.60
2018-10-09T13:31:08.156Z,90.50
2018-10-09T13:33:37.556Z,89.10
2018-10-09T13:36:08.186Z,87.70
2018-10-09T13:38:37.742Z,87.50
2018-10-09T13:41:09.028Z,86.50
2018-10-09T13:43:40.260Z,86.30
2018-10-09T13:46:09.951Z,84.60
2018-10-09T13:48:39.168Z,84.30
2018-10-09T13:51:08.589Z,84.30
2018-10-09T13:53:40.084Z,84.80
2018-10-09T13:56:10.062Z,85.00
2018-10-09T13:58:40.812Z,84.00
2018-10-09T14:01:10.837Z,83.70
2018-10-09T14:03:41.177Z,83.40
2018-10-09T14:06:12.207Z,83.60
2018-10-09T14:08:44.328Z,84.00
2018-10-09T14:11:14.213Z,85.20
2018-10-09T14:13:43.478Z,86.20
2018-10-09T14:16:13.200Z,85.60
2018-10-09T14:18:42.496Z,86.00
2018-10-09T14:21:15.207Z,85.90
2018-10-09T14:23:44.456Z,85.20
2018-10-09T14:26:13.881Z,85.40
2018-10-09T14:28:43.137Z,85.40
2018-10-09T14:31:13.221Z,85.50
2018-10-09T14:33:46.396Z,86.00
2018-10-09T14:36:17.153Z,86.50
2018-10-09T14:38:46.582Z,85.30
2018-10-09T14:41:15.804Z,84.80
2018-10-09T14:43:45.036Z,85.40
2018-10-09T14:46:14.257Z,85.70
2018-10-09T14:48:43.532Z,85.60
2018-10-09T14:51:12.678Z,85.60
2018-10-09T14:53:41.882Z,85.60
2018-10-09T14:56:12.033Z,84.70
2018-10-09T14:58:41.343Z,84.80
2018-10-09T15:01:10.531Z,85.50
2018-10-09T15:03:39.703Z,85.20
2018-10-09T15:06:09.778Z,85.40
2018-10-09T15:08:40.203Z,85.70
2018-10-09T15:11:13.382Z,87.00
2018-10-09T15:13:43.751Z,86.30
2018-10-09T15:16:13.068Z,89.60
2018-10-09T15:18:43.506Z,89.70
2018-10-09T15:21:14.981Z,88.80
2018-10-09T15:23:44.742Z,90.60
2018-10-09T15:26:14.311Z,91.70
2018-10-09T15:28:43.756Z,92.70
2018-10-09T15:31:15.679Z,93.00
2018-10-09T15:33:45.348Z,93.50
2018-10-09T15:36:14.641Z,93.90
2018-10-09T15:38:44.242Z,94.80
2018-10-09T15:41:17.564Z,95.30
2018-10-09T15:43:49.319Z,96.00
2018-10-09T15:46:19.890Z,96.40
2018-10-09T15:48:49.131Z,96.80
2018-10-09T15:51:18.863Z,97.40
2018-10-09T15:53:57.528Z,97.60
2018-10-09T15:56:27.451Z,98.10
2018-10-09T15:59:03.008Z,98.80
2018-10-09T16:01:33.041Z,99.30
2018-10-09T16:04:02.368Z,99.50
2018-10-09T16:06:31.743Z,99.80
2018-10-09T16:09:03.112Z,99.90
2018-10-09T16:11:33.357Z,99.90
2018-10-09T16:14:02.588Z,99.90
2018-10-09T16:16:33.692Z,99.90
2018-10-09T16:19:06.342Z,99.90
2018-10-09T16:21:37.439Z,99.90
2018-10-09T16:24:07.860Z,99.90
2018-10-09T16:26:39.228Z,99.90
2018-10-09T16:29:11.349Z,99.90
2018-10-09T16:31:51.858Z,99.90
2018-10-09T16:34:23.177Z,99.90
2018-10-09T16:36:53.611Z,99.90
2018-10-09T16:39:25.073Z,99.90
2018-10-09T16:41:59.688Z,99.90
2018-10-09T16:44:32.345Z,99.90
2018-10-09T16:47:06.192Z,99.90
2018-10-09T16:49:42.388Z,99.90
2018-10-09T16:52:12.690Z,99.90
2018-10-09T16:54:41.976Z,99.90
2018-10-09T16:57:13.080Z,99.90
2018-10-09T16:59:45.695Z,99.90
2018-10-09T17:02:15.806Z,99.90
2018-10-09T17:04:45.095Z,99.90
2018-10-09T17:07:14.587Z,99.90
2018-10-09T17:09:45.200Z,99.90
2018-10-09T17:12:14.750Z,99.90
2018-10-09T17:14:44.723Z,99.90
2018-10-09T17:17:15.476Z,99.90
2018-10-09T17:19:45.607Z,99.90
2018-10-09T17:22:14.549Z,99.90
2018-10-09T17:24:45.225Z,99.90
2018-10-09T17:27:14.762Z,99.90
2018-10-09T17:29:43.883Z,99.90
2018-10-09T17:32:13.016Z,99.90
2018-10-09T17:34:42.464Z,99.90
2018-10-09T17:37:11.791Z,99.90
2018-10-09T17:39:41.724Z,99.90
2018-10-09T17:42:14.011Z,99.90
2018-10-09T17:44:46.713Z,99.90
2018-10-09T17:47:16.212Z,99.90
2018-10-09T17:49:50.831Z,99.90
2018-10-09T17:52:21.253Z,99.90
2018-10-09T17:54:51.243Z,99.90
2018-10-09T17:57:23.682Z,99.90
2018-10-09T17:59:55.442Z,99.90
2018-10-09T18:02:24.885Z,99.90
2018-10-09T18:04:54.292Z,99.90
2018-10-09T18:07:24.683Z,99.90
2018-10-09T18:09:56.537Z,99.90
2018-10-09T18:12:26.001Z,99.90
2018-10-09T18:14:57.046Z,99.90
2018-10-09T18:17:26.497Z,99.90
2018-10-09T18:19:57.385Z,99.90
2018-10-09T18:22:28.254Z,99.90
2018-10-09T18:25:00.387Z,99.90
2018-10-09T18:27:30.718Z,99.90
2018-10-09T18:30:03.713Z,99.90
2018-10-09T18:32:33.963Z,99.90
2018-10-09T18:35:03.282Z,99.90
2018-10-09T18:37:32.324Z,99.90
2018-10-09T18:40:01.790Z,99.90
2018-10-09T18:42:31.565Z,99.90
2018-10-09T18:45:02.871Z,99.90
2018-10-09T18:47:37.381Z,99.90
2018-10-09T18:50:10.251Z,99.90
2018-10-09T18:52:39.598Z,99.90
2018-10-09T18:55:10.936Z,99.90
2018-10-09T18:57:39.795Z,99.90
2018-10-09T19:00:12.411Z,99.90
2018-10-09T19:02:42.092Z,99.90
2018-10-09T19:05:14.728Z,99.90
2018-10-09T19:07:47.551Z,99.90
2018-10-09T19:10:16.868Z,99.90
2018-10-09T19:12:47.191Z,99.90
2018-10-09T19:15:16.531Z,99.90
2018-10-09T19:17:46.656Z,99.90
2018-10-09T19:20:16.451Z,99.90
2018-10-09T19:22:50.802Z,99.90
2018-10-09T19:25:21.573Z,99.90
2018-10-09T19:27:50.988Z,99.90
2018-10-09T19:30:21.624Z,99.90
2018-10-09T19:32:51.490Z,99.90
2018-10-09T19:35:23.414Z,99.90
2018-10-09T19:37:52.772Z,99.90
2018-10-09T19:40:23.328Z,99.90
2018-10-09T19:42:54.566Z,99.90
2018-10-09T19:45:24.965Z,99.90
2018-10-09T19:47:55.625Z,99.90
2018-10-09T19:50:25.554Z,99.90
2018-10-09T19:52:55.113Z,99.90
2018-10-09T19:55:25.777Z,99.90
2018-10-09T19:57:57.329Z,99.90
2018-10-09T20:00:29.617Z,99.90
2018-10-09T20:03:01.349Z,99.90
2018-10-09T20:08:34.351Z,99.90
2018-10-09T20:11:04.896Z,99.90
2018-10-09T20:13:36.657Z,99.90
2018-10-09T20:16:07.635Z,99.90
2018-10-09T20:18:37.093Z,99.90
2018-10-09T20:21:09.955Z,99.90
2018-10-09T20:23:40.373Z,99.90
2018-10-09T20:26:10.449Z,99.90
2018-10-09T20:28:41.758Z,99.90
2018-10-09T20:31:15.167Z,99.90
2018-10-09T20:33:45.996Z,99.90
2018-10-09T20:36:15.402Z,99.90
2018-10-09T20:38:44.980Z,99.90
2018-10-09T20:41:14.602Z,99.90
2018-10-09T20:43:44.419Z,99.90
2018-10-09T20:46:15.187Z,99.90
2018-10-09T20:48:44.401Z,99.90
2018-10-09T20:51:16.093Z,99.90
2018-10-09T20:53:45.368Z,99.90
2018-10-09T20:56:16.233Z,99.90
2018-10-09T20:58:46.877Z,99.90
2018-10-09T21:01:16.160Z,99.90
2018-10-09T21:03:46.061Z,99.90
2018-10-09T21:06:16.621Z,99.90
2018-10-09T21:08:46.026Z,99.90
2018-10-09T21:11:15.875Z,99.90
2018-10-09T21:13:47.074Z,99.90
2018-10-09T21:16:18.325Z,99.90
2018-10-09T21:18:50.543Z,99.90
2018-10-09T21:21:22.081Z,99.90
2018-10-09T21:23:51.553Z,99.90
2018-10-09T21:26:23.421Z,99.90
2018-10-09T21:28:52.717Z,99.90
2018-10-09T21:31:24.573Z,99.90
2018-10-09T21:33:55.471Z,99.90
2018-10-09T21:36:26.080Z,99.90
2018-10-09T21:38:55.549Z,99.90
2018-10-09T21:41:24.847Z,99.90
2018-10-09T21:43:54.999Z,99.90
2018-10-09T21:46:24.669Z,99.90
2018-10-09T21:48:54.552Z,99.90
2018-10-09T21:51:26.857Z,99.90
2018-10-09T21:53:57.700Z,99.90
2018-10-09T21:56:29.300Z,99.90
2018-10-09T21:58:58.586Z,99.90
2018-10-09T22:01:27.574Z,99.90
2018-10-09T22:03:56.882Z,99.90
2018-10-09T22:06:26.312Z,99.90
2018-10-09T22:08:55.600Z,99.90
2018-10-09T22:11:25.206Z,99.90
2018-10-09T22:13:54.606Z,99.90
2018-10-09T22:16:23.854Z,99.90
2018-10-09T22:18:53.192Z,99.90
2018-10-09T22:21:23.586Z,99.90
2018-10-09T22:23:53.837Z,99.90
2018-10-09T22:26:23.290Z,99.90
2018-10-09T22:28:52.492Z,99.90
2018-10-09T22:31:21.794Z,99.90
2018-10-09T22:33:51.046Z,99.90
2018-10-09T22:36:21.380Z,99.90
2018-10-09T22:38:52.160Z,99.90
2018-10-09T22:41:21.460Z,99.90
2018-10-09T22:43:50.728Z,99.90
2018-10-09T22:46:20.870Z,99.90
2018-10-09T22:48:50.784Z,99.90
2018-10-09T22:51:21.896Z,99.90
2018-10-09T22:53:51.285Z,99.90
2018-10-09T22:56:20.549Z,99.90
2018-10-09T22:58:49.849Z,99.90
2018-10-09T23:01:19.730Z,99.90
2018-10-09T23:03:48.994Z,99.90
2018-10-09T23:06:18.451Z,99.90
2018-10-09T23:08:47.825Z,99.90
2018-10-09T23:11:17.445Z,99.90
2018-10-09T23:13:48.889Z,99.90
2018-10-09T23:16:17.904Z,99.90
2018-10-09T23:18:47.465Z,99.90
2018-10-09T23:21:16.808Z,99.90
2018-10-09T23:23:46.575Z,99.90
2018-10-09T23:26:16.045Z,99.90
2018-10-09T23:28:45.468Z,99.90
2018-10-09T23:31:15.743Z,99.90
2018-10-09T23:33:49.751Z,99.90
2018-10-09T23:36:19.043Z,99.90
2018-10-09T23:38:49.273Z,99.90
2018-10-09T23:41:19.065Z,99.90
2018-10-09T23:43:48.285Z,99.90
2018-10-09T23:46:17.398Z,99.90
2018-10-09T23:48:46.590Z,99.90
2018-10-09T23:51:16.260Z,99.90
2018-10-09T23:53:45.394Z,99.90
2018-10-09T23:56:18.282Z,99.90
2018-10-09T23:58:47.413Z,99.90
